Time;durP1;ratioP1;P1;durP2;ratioP2;P2;SDS_P1;SDS_P2;PMS_P1;PMS_P2;Temp;Humidity;BMP_temperature;BMP_pressure;BME280_temperature;BME280_humidity;BME280_pressure;Samples;Min_cycle;Max_cycle;Signal;HPM_P1;HPM_P2
2022/11/23 01:13:23;;;;;;;53.73;31.07;;;14.00;91.50;;;;;;4587297;19;19999;-21
2022/11/23 01:14:55;;;;;;;54.10;33.47;;;13.90;91.50;;;;;;4584978;19;20025;-21
2022/11/23 01:16:41;;;;;;;52.20;31.60;;;14.00;91.40;;;;;;4589368;19;20485;-22
2022/11/23 01:18:12;;;;;;;50.55;30.60;;;13.90;91.40;;;;;;4590079;19;20033;-22
2022/11/23 01:19:44;;;;;;;55.97;32.42;;;13.90;91.40;;;;;;4589614;19;20014;-23
2022/11/23 01:21:30;;;;;;;52.20;30.50;;;13.90;91.40;;;;;;4589570;19;20030;-22
2022/11/23 01:23:02;;;;;;;55.13;31.80;;;13.90;91.40;;;;;;4589562;19;20337;-22
2022/11/23 01:24:34;;;;;;;50.80;30.25;;;13.90;91.40;;;;;;4589576;19;20376;-22
2022/11/23 01:26:06;;;;;;;51.90;31.50;;;13.90;91.40;;;;;;4589582;19;20491;-22
2022/11/23 01:27:37;;;;;;;54.17;32.10;;;13.90;91.40;;;;;;4588554;19;20637;-22
2022/11/23 01:29:09;;;;;;;;;;;13.90;91.40;;;;;;4590189;19;20022;-21
2022/11/23 01:30:40;;;;;;;53.93;32.77;;;13.90;91.40;;;;;;4589755;19;19974;-21
2022/11/23 01:32:12;;;;;;;53.60;30.07;;;13.90;91.40;;;;;;4589134;19;20353;-22
2022/11/23 01:33:44;;;;;;;54.85;31.90;;;13.90;91.40;;;;;;4586894;19;20457;-22
2022/11/23 01:35:14;;;;;;;54.75;30.83;;;13.90;91.70;;;;;;4589846;19;20356;-22
2022/11/23 01:36:45;;;;;;;51.03;30.42;;;13.90;91.50;;;;;;4589717;19;20007;-22
2022/11/23 01:38:18;;;;;;;53.23;32.83;;;13.90;91.50;;;;;;4588102;19;20018;-22
2022/11/23 01:39:50;;;;;;;56.93;30.90;;;13.90;91.50;;;;;;4588930;19;20488;-23
2022/11/23 01:41:26;;;;;;;53.07;31.13;;;14.00;91.50;;;;;;4587903;19;20099;-22
2022/11/23 01:42:59;;;;;;;59.57;33.03;;;13.90;91.50;;;;;;4587255;19;20021;-22
2022/11/23 01:44:32;;;;;;;54.23;32.77;;;13.90;91.50;;;;;;4589080;19;20014;-25
2022/11/23 01:46:05;;;;;;;50.50;29.57;;;13.90;91.50;;;;;;4591647;19;20015;-21
2022/11/23 01:47:37;;;;;;;49.00;29.37;;;13.90;91.60;;;;;;4588444;19;20011;-21
2022/11/23 01:49:08;;;;;;;52.17;31.40;;;13.90;91.60;;;;;;4589167;19;20491;-22
2022/11/23 01:50:38;;;;;;;50.47;28.83;;;13.90;91.60;;;;;;4589018;19;20066;-21
2022/11/23 01:52:19;;;;;;;54.33;31.37;;;13.90;91.60;;;;;;4587506;19;20014;-23
2022/11/23 01:53:52;;;;;;;50.77;29.47;;;13.90;91.60;;;;;;4587574;19;20520;-23
2022/11/23 01:55:24;;;;;;;50.93;28.80;;;13.90;91.60;;;;;;4590057;19;20033;-23
2022/11/23 01:57:00;;;;;;;49.70;28.70;;;13.90;91.60;;;;;;4588820;19;20018;-21
2022/11/23 01:58:35;;;;;;;48.40;28.33;;;13.90;91.70;;;;;;4587738;19;20007;-22
2022/11/23 02:00:08;;;;;;;50.07;28.27;;;13.90;91.70;;;;;;4587944;19;20013;-22
2022/11/23 02:01:39;;;;;;;;;;;13.90;91.60;;;;;;4589753;19;20022;-22
2022/11/23 02:03:10;;;;;;;47.13;27.17;;;13.90;91.70;;;;;;4588909;19;19970;-21
2022/11/23 02:04:43;;;;;;;47.30;27.47;;;13.90;91.70;;;;;;4589363;19;20368;-22
2022/11/23 02:06:18;;;;;;;49.10;27.47;;;13.90;91.70;;;;;;4588052;19;20014;-23
2022/11/23 02:07:49;;;;;;;44.03;27.57;;;13.90;91.70;;;;;;4587407;19;20379;-21
2022/11/23 02:09:20;;;;;;;45.47;27.42;;;13.90;91.70;;;;;;4587612;19;20014;-24
2022/11/23 02:10:51;;;;;;;43.70;26.40;;;13.90;91.70;;;;;;4587620;19;20373;-22
2022/11/23 02:12:23;;;;;;;46.93;28.03;;;13.90;91.70;;;;;;4587712;19;20033;-21
2022/11/23 02:13:55;;;;;;;43.15;26.92;;;13.90;91.90;;;;;;4586247;19;20942;-22
2022/11/23 02:15:28;;;;;;;44.83;26.73;;;13.90;91.70;;;;;;4588730;19;20022;-22
2022/11/23 02:17:00;;;;;;;48.13;27.80;;;14.00;91.70;;;;;;4588501;19;20591;-22
2022/11/23 02:18:33;;;;;;;46.10;27.17;;;14.00;91.70;;;;;;4588730;19;20013;-21
2022/11/23 02:20:10;;;;;;;45.33;27.47;;;14.00;91.70;;;;;;4587511;19;20429;-21
2022/11/23 02:21:41;;;;;;;41.37;25.97;;;14.00;91.80;;;;;;4588509;19;20023;-22
2022/11/23 02:23:51;;;;;;;44.60;26.13;;;14.00;91.70;;;;;;4587381;19;20007;-21
2022/11/23 02:25:27;;;;;;;45.87;25.77;;;14.00;91.80;;;;;;4588802;19;20879;-21
2022/11/23 02:26:58;;;;;;;43.10;26.37;;;14.00;91.70;;;;;;4588865;19;20392;-21
2022/11/23 02:28:35;;;;;;;45.60;26.23;;;14.00;91.70;;;;;;4587435;19;20027;-21
2022/11/23 02:30:07;;;;;;;43.70;26.70;;;14.00;91.70;;;;;;4587477;19;20030;-22
2022/11/23 02:31:38;;;;;;;40.83;25.40;;;14.00;92.00;;;;;;4586337;19;20017;-22
2022/11/23 02:33:09;;;;;;;45.35;26.95;;;14.00;91.80;;;;;;4587278;19;20022;-22
2022/11/23 02:34:43;;;;;;;44.83;27.93;;;14.00;91.80;;;;;;4589129;19;20010;-22
2022/11/23 02:36:40;;;;;;;44.55;26.27;;;14.00;91.80;;;;;;4591475;19;20010;-21
2022/11/23 02:38:11;;;;;;;48.03;25.73;;;14.00;91.90;;;;;;4591978;19;20036;-21
2022/11/23 02:39:47;;;;;;;40.88;26.15;;;14.00;91.90;;;;;;4592113;19;20002;-24
2022/11/23 02:41:18;;;;;;;46.43;26.47;;;14.00;91.90;;;;;;4590668;19;20388;-20
2022/11/23 02:42:49;;;;;;;40.92;24.77;;;14.00;91.80;;;;;;4592504;19;20018;-21
2022/11/23 02:44:41;;;;;;;44.50;27.23;;;14.00;91.80;;;;;;4592061;19;20011;-22
2022/11/23 02:46:12;;;;;;;44.05;25.77;;;14.00;91.80;;;;;;4595566;19;20016;-21
2022/11/23 02:47:44;;;;;;;40.00;25.30;;;14.00;91.80;;;;;;4593388;19;20456;-21
2022/11/23 02:49:17;;;;;;;43.60;25.20;;;14.00;91.80;;;;;;4592777;19;20018;-21
2022/11/23 02:50:48;;;;;;;43.33;26.48;;;14.00;91.80;;;;;;4592852;19;20474;-22
2022/11/23 02:52:19;;;;;;;40.33;25.05;;;14.00;91.70;;;;;;4592824;19;20006;-21
2022/11/23 02:53:50;;;;;;;45.13;26.20;;;14.00;91.70;;;;;;4592364;19;20495;-21
2022/11/23 02:55:23;;;;;;;41.30;25.73;;;14.00;91.70;;;;;;4593533;19;20015;-22
2022/11/23 02:56:54;;;;;;;44.60;26.08;;;14.00;91.80;;;;;;4592931;19;20723;-21
2022/11/23 02:58:26;;;;;;;40.77;24.93;;;13.90;91.70;;;;;;4592479;19;20358;-23
2022/11/23 02:59:57;;;;;;;44.88;25.70;;;14.00;91.80;;;;;;4592730;19;20006;-21
2022/11/23 03:01:28;;;;;;;42.10;24.70;;;13.90;91.80;;;;;;4591251;19;20014;-26
2022/11/23 03:03:00;;;;;;;40.07;25.10;;;13.90;91.70;;;;;;4592136;19;20022;-21
2022/11/23 03:04:32;;;;;;;41.45;24.15;;;13.90;91.70;;;;;;4592456;19;20048;-21
2022/11/23 03:06:03;;;;;;;43.08;25.55;;;13.90;91.70;;;;;;4594110;19;20018;-22
2022/11/23 03:07:34;;;;;;;42.67;25.50;;;13.90;91.80;;;;;;4592498;19;20502;-21
2022/11/23 03:09:07;;;;;;;43.83;25.70;;;13.90;91.80;;;;;;4591338;19;20006;-23
2022/11/23 03:10:38;;;;;;;45.10;26.35;;;13.90;91.80;;;;;;4590469;19;20018;-21
2022/11/23 03:12:09;;;;;;;40.20;24.60;;;13.90;91.80;;;;;;4591531;19;20468;-21
2022/11/23 03:13:40;;;;;;;41.92;25.95;;;13.90;91.80;;;;;;4589507;19;20014;-21
2022/11/23 03:15:11;;;;;;;43.20;25.15;;;13.90;91.80;;;;;;4592302;19;20011;-22
2022/11/23 03:16:44;;;;;;;42.57;25.27;;;13.90;91.80;;;;;;4592346;19;20010;-21
2022/11/23 03:18:17;;;;;;;40.80;25.10;;;13.90;91.90;;;;;;4592152;19;20476;-21
2022/11/23 03:19:48;;;;;;;43.03;27.08;;;13.90;91.80;;;;;;4592498;19;20014;-23
2022/11/23 03:21:19;;;;;;;43.85;26.35;;;13.90;91.80;;;;;;4592597;19;20014;-22
2022/11/23 03:22:50;;;;;;;43.30;25.65;;;13.90;91.80;;;;;;4592097;19;20035;-21
2022/11/23 03:24:22;;;;;;;43.95;26.85;;;13.90;91.80;;;;;;4592270;19;20368;-22
2022/11/23 03:25:55;;;;;;;38.35;24.85;;;13.90;91.80;;;;;;4592312;19;20014;-23
2022/11/23 03:27:26;;;;;;;44.07;25.63;;;13.90;91.80;;;;;;4591863;19;20360;-21
2022/11/23 03:28:58;;;;;;;42.77;25.60;;;13.90;91.80;;;;;;4591716;19;20070;-21
2022/11/23 03:30:30;;;;;;;38.63;25.08;;;13.90;91.90;;;;;;4591829;19;20358;-20
2022/11/23 03:32:01;;;;;;;41.80;26.60;;;13.90;91.90;;;;;;4591262;19;20023;-22
2022/11/23 03:33:32;;;;;;;40.58;25.17;;;13.90;91.90;;;;;;4591213;19;20010;-22
2022/11/23 03:35:05;;;;;;;45.30;26.85;;;13.90;91.90;;;;;;4593036;19;20014;-22
2022/11/23 03:36:36;;;;;;;43.63;26.20;;;13.90;91.90;;;;;;4591672;19;20014;-21
2022/11/23 03:38:08;;;;;;;43.83;26.73;;;13.80;91.90;;;;;;4591801;19;20345;-22
2022/11/23 03:39:40;;;;;;;43.40;26.55;;;13.90;92.00;;;;;;4589564;19;20014;-21
2022/11/23 03:41:11;;;;;;;46.65;26.40;;;13.90;91.90;;;;;;4590421;19;20469;-22
2022/11/23 03:42:42;;;;;;;40.72;25.98;;;13.90;91.90;;;;;;4591683;19;20011;-22
2022/11/23 03:44:14;;;;;;;40.67;25.63;;;13.90;91.90;;;;;;4590739;19;20087;-22
2022/11/23 03:45:45;;;;;;;43.70;27.02;;;13.90;91.90;;;;;;4592613;19;20034;-22
2022/11/23 03:47:16;;;;;;;;;;;13.90;91.90;;;;;;4590984;19;20586;-22
2022/11/23 03:48:48;;;;;;;44.27;25.17;;;13.90;91.90;;;;;;4591605;19;19922;-24
2022/11/23 03:50:20;;;;;;;42.40;26.17;;;13.90;91.90;;;;;;4591751;19;20429;-23
2022/11/23 03:51:52;;;;;;;40.77;24.20;;;13.90;92.00;;;;;;4591114;19;20603;-22
2022/11/23 03:53:24;;;;;;;42.67;25.97;;;13.90;92.00;;;;;;4591313;19;20019;-21
2022/11/23 03:54:55;;;;;;;41.92;25.83;;;13.90;92.00;;;;;;4592688;19;20010;-21
2022/11/23 03:56:26;;;;;;;38.47;25.17;;;13.90;92.00;;;;;;4593052;19;20360;-24
2022/11/23 03:57:58;;;;;;;;;;;13.90;92.00;;;;;;4591626;19;20022;-21
2022/11/23 03:59:29;;;;;;;43.28;24.33;;;13.90;92.00;;;;;;4590106;19;20336;-21
2022/11/23 04:01:01;;;;;;;39.28;24.85;;;13.90;92.00;;;;;;4590424;19;20014;-21
2022/11/23 04:02:32;;;;;;;43.35;25.42;;;13.90;92.00;;;;;;4591287;19;20026;-21
2022/11/23 04:04:07;;;;;;;45.30;26.30;;;13.90;92.00;;;;;;4591147;19;20017;-21
2022/11/23 04:05:38;;;;;;;43.45;25.30;;;13.90;92.00;;;;;;4591993;19;20015;-21
2022/11/23 04:07:11;;;;;;;40.30;25.50;;;13.90;92.00;;;;;;4590962;19;20010;-22
2022/11/23 04:08:43;;;;;;;41.35;25.45;;;13.90;92.00;;;;;;4591442;19;20770;-21
2022/11/23 04:10:15;;;;;;;38.87;24.07;;;13.90;92.00;;;;;;4591247;19;20017;-22
2022/11/23 04:11:47;;;;;;;40.60;24.77;;;13.90;92.00;;;;;;4591025;19;20037;-21
2022/11/23 04:13:18;;;;;;;42.75;26.23;;;13.90;92.00;;;;;;4591527;19;20472;-21
2022/11/23 04:14:50;;;;;;;39.73;25.10;;;13.90;92.00;;;;;;4589913;19;20030;-21
2022/11/23 04:16:23;;;;;;;42.13;25.50;;;13.90;92.00;;;;;;4592530;19;20031;-21
2022/11/23 04:17:54;;;;;;;43.60;25.25;;;13.90;92.00;;;;;;4590775;19;20341;-21
2022/11/23 04:19:25;;;;;;;43.88;26.45;;;13.90;92.10;;;;;;4590104;19;20014;-22
2022/11/23 04:20:56;;;;;;;38.33;24.50;;;13.80;92.00;;;;;;4590961;19;20402;-21
2022/11/23 04:22:27;;;;;;;40.80;24.67;;;13.90;92.10;;;;;;4588858;19;20014;-21
2022/11/23 04:23:58;;;;;;;40.65;23.80;;;13.90;92.10;;;;;;4590082;19;20357;-22
2022/11/23 04:25:30;;;;;;;43.00;25.58;;;13.80;92.00;;;;;;4591212;19;20372;-21
2022/11/23 04:27:02;;;;;;;41.30;24.60;;;13.90;92.00;;;;;;4590723;19;20014;-22
2022/11/23 04:28:33;;;;;;;42.10;25.80;;;13.80;92.00;;;;;;4590957;19;20591;-22
2022/11/23 04:30:05;;;;;;;40.08;24.70;;;13.90;92.00;;;;;;4590873;19;20010;-23
2022/11/23 04:31:36;;;;;;;43.92;25.55;;;13.80;92.00;;;;;;4589418;19;20027;-22
2022/11/23 04:33:08;;;;;;;41.53;25.20;;;13.90;92.30;;;;;;4590096;19;20014;-21
2022/11/23 04:34:40;;;;;;;38.50;24.02;;;13.90;92.10;;;;;;4590469;19;20019;-21
2022/11/23 04:36:11;;;;;;;43.15;25.85;;;13.90;92.00;;;;;;4591082;19;20015;-21
2022/11/23 04:37:43;;;;;;;43.42;25.85;;;13.90;91.90;;;;;;4589604;19;20015;-21
2022/11/23 04:39:15;;;;;;;41.70;25.50;;;14.00;92.00;;;;;;4588364;19;20018;-22
2022/11/23 04:40:48;;;;;;;38.43;23.87;;;14.10;91.90;;;;;;4589446;19;20014;-23
2022/11/23 04:42:20;;;;;;;42.87;26.83;;;14.10;91.80;;;;;;4590979;19;20011;-23
2022/11/23 04:43:53;;;;;;;42.00;26.00;;;14.20;91.70;;;;;;4589476;19;20019;-24
2022/11/23 04:45:26;;;;;;;39.53;25.57;;;14.20;91.70;;;;;;4590594;19;20007;-22
2022/11/23 04:46:59;;;;;;;40.30;25.27;;;14.30;91.70;;;;;;4590183;19;20074;-21
2022/11/23 04:48:31;;;;;;;41.77;25.37;;;14.30;91.70;;;;;;4589467;19;20037;-23
2022/11/23 04:50:03;;;;;;;39.65;25.13;;;14.30;91.60;;;;;;4589746;19;20445;-22
2022/11/23 04:51:34;;;;;;;;;;;14.30;91.60;;;;;;4591332;19;20011;-22
2022/11/23 04:53:05;;;;;;;43.20;24.57;;;14.40;91.60;;;;;;4591394;19;19926;-21
2022/11/23 04:54:37;;;;;;;41.50;24.90;;;14.40;91.50;;;;;;4590270;19;20026;-22
2022/11/23 04:56:08;;;;;;;41.10;25.77;;;14.40;91.50;;;;;;4589747;19;20394;-22
2022/11/23 04:57:40;;;;;;;37.67;23.88;;;14.50;91.50;;;;;;4588931;19;20468;-22
2022/11/23 04:59:11;;;;;;;40.67;25.08;;;14.40;91.50;;;;;;4585851;19;20033;-23
2022/11/23 05:00:42;;;;;;;40.35;25.33;;;14.40;91.50;;;;;;4588655;19;20019;-22
2022/11/23 05:02:14;;;;;;;40.20;25.67;;;14.50;91.50;;;;;;4588574;19;20105;-22
2022/11/23 05:03:45;;;;;;;38.20;24.23;;;14.50;91.50;;;;;;4586208;19;20017;-21
2022/11/23 05:05:17;;;;;;;41.70;26.30;;;14.50;91.60;;;;;;4588539;19;20041;-22
2022/11/23 05:06:48;;;;;;;38.38;23.88;;;14.40;91.60;;;;;;4589593;19;20480;-22
2022/11/23 05:08:20;;;;;;;;;;;14.40;91.60;;;;;;4588862;19;20035;-22
2022/11/23 05:09:51;;;;;;;35.03;22.80;;;14.40;91.60;;;;;;4589654;19;19915;-22
2022/11/23 05:11:22;;;;;;;36.22;23.33;;;14.50;91.70;;;;;;4591475;19;20476;-23
2022/11/23 05:12:53;;;;;;;38.85;24.08;;;14.60;91.70;;;;;;4589668;19;20047;-22
2022/11/23 05:16:14;;;;;;;38.57;25.93;;;14.50;91.60;;;;;;4590842;19;20430;-22
2022/11/23 05:17:45;;;;;;;41.83;26.27;;;14.40;91.70;;;;;;4590600;19;20014;-24
2022/11/23 05:19:17;;;;;;;;;;;14.30;91.70;;;;;;4589843;19;20483;-21
2022/11/23 05:20:48;;;;;;;42.30;25.93;;;14.30;91.80;;;;;;4590598;19;19982;-22
2022/11/23 05:22:20;;;;;;;42.92;25.58;;;14.20;91.70;;;;;;4590531;19;20010;-22
2022/11/23 05:23:50;;;;;;;40.08;27.20;;;14.20;91.80;;;;;;4589362;19;20042;-23
2022/11/23 05:25:22;;;;;;;40.55;25.80;;;14.20;91.80;;;;;;4589753;19;20026;-21
2022/11/23 05:26:53;;;;;;;41.22;25.95;;;14.20;91.80;;;;;;4590460;19;20007;-23
2022/11/23 05:28:24;;;;;;;43.60;26.63;;;14.20;91.80;;;;;;4589499;19;20073;-21
2022/11/23 05:29:55;;;;;;;39.90;25.15;;;14.20;91.80;;;;;;4588900;19;20022;-21
2022/11/23 05:31:26;;;;;;;41.45;25.25;;;14.20;91.80;;;;;;4588331;19;20010;-21
2022/11/23 05:33:01;;;;;;;38.75;24.60;;;14.10;91.80;;;;;;4588542;19;20040;-22
2022/11/23 05:34:47;;;;;;;41.97;26.50;;;14.10;91.80;;;;;;4589433;19;20002;-21
2022/11/23 05:36:18;;;;;;;40.38;25.13;;;14.20;91.80;;;;;;4589751;19;20342;-21
2022/11/23 05:37:49;;;;;;;39.13;24.85;;;14.10;91.80;;;;;;4590458;19;20014;-22
2022/11/23 05:39:20;;;;;;;40.75;26.42;;;14.20;91.80;;;;;;4589451;19;20032;-23
2022/11/23 05:40:51;;;;;;;39.67;26.73;;;14.10;91.80;;;;;;4589831;19;20026;-22
2022/11/23 05:42:22;;;;;;;36.38;24.38;;;14.10;91.80;;;;;;4588449;19;20101;-22
2022/11/23 05:43:54;;;;;;;43.78;26.27;;;14.10;91.90;;;;;;4587262;19;20643;-24
2022/11/23 05:45:25;;;;;;;37.88;25.20;;;14.10;91.90;;;;;;4588027;19;20022;-23
2022/11/23 05:46:56;;;;;;;38.50;23.70;;;14.10;91.90;;;;;;4586348;19;20039;-21
2022/11/23 05:48:27;;;;;;;39.92;25.83;;;14.10;91.90;;;;;;4587973;19;20003;-21
2022/11/23 05:49:59;;;;;;;36.83;25.50;;;14.10;91.90;;;;;;4588035;19;20017;-20
2022/11/23 05:51:48;;;;;;;38.45;25.35;;;14.10;91.80;;;;;;4590893;19;20038;-21
2022/11/23 05:53:20;;;;;;;37.93;25.07;;;14.10;91.80;;;;;;4590354;19;20461;-21
2022/11/23 05:54:51;;;;;;;41.65;26.30;;;14.10;91.80;;;;;;4590432;19;20015;-21
2022/11/23 05:56:22;;;;;;;41.72;26.15;;;14.10;91.80;;;;;;4588114;19;20014;-21
2022/11/23 05:57:53;;;;;;;40.90;25.73;;;14.10;91.90;;;;;;4588650;19;20018;-22
2022/11/23 05:59:25;;;;;;;41.10;26.83;;;14.10;91.90;;;;;;4588808;19;20046;-21
2022/11/23 06:00:59;;;;;;;37.17;25.30;;;14.10;91.90;;;;;;4588920;19;20011;-22
2022/11/23 06:02:30;;;;;;;40.80;25.97;;;14.10;91.90;;;;;;4587593;19;20052;-21
2022/11/23 06:04:02;;;;;;;38.60;25.75;;;14.10;91.90;;;;;;4588657;19;20022;-20
2022/11/23 06:05:33;;;;;;;38.75;25.63;;;14.10;91.90;;;;;;4589692;19;20448;-21
2022/11/23 06:07:05;;;;;;;42.00;27.20;;;14.10;91.90;;;;;;4587956;19;20030;-21
2022/11/23 06:08:41;;;;;;;37.47;25.93;;;14.10;91.90;;;;;;4588723;19;20020;-21
2022/11/23 06:10:13;;;;;;;;;;;14.10;91.90;;;;;;4590783;19;20437;-22
2022/11/23 06:11:44;;;;;;;41.00;25.77;;;14.10;92.00;;;;;;4593812;19;19970;-21
2022/11/23 06:13:15;;;;;;;42.03;26.60;;;14.10;91.90;;;;;;4593680;19;20011;-21
2022/11/23 06:14:46;;;;;;;43.95;28.40;;;14.10;92.00;;;;;;4591473;19;20018;-21
2022/11/23 06:16:17;;;;;;;40.78;26.50;;;14.10;92.00;;;;;;4591825;19;20023;-22
2022/11/23 06:17:49;;;;;;;42.83;26.38;;;14.10;92.00;;;;;;4591624;19;20030;-23
2022/11/23 06:19:21;;;;;;;39.47;25.15;;;14.00;92.00;;;;;;4590558;19;20030;-21
2022/11/23 06:20:51;;;;;;;39.45;25.67;;;14.00;92.00;;;;;;4594837;19;20010;-22
2022/11/23 06:22:23;;;;;;;39.97;25.60;;;14.10;92.00;;;;;;4595179;19;20011;-26
2022/11/23 06:23:54;;;;;;;38.38;25.25;;;14.00;92.00;;;;;;4593069;19;20006;-22
2022/11/23 06:25:25;;;;;;;41.15;24.30;;;14.00;92.00;;;;;;4592609;19;20364;-22
2022/11/23 06:26:57;;;;;;;40.67;24.95;;;14.00;92.10;;;;;;4592314;19;20062;-21
2022/11/23 06:28:28;;;;;;;45.22;27.85;;;14.00;92.00;;;;;;4593549;19;20464;-23
2022/11/23 06:29:59;;;;;;;39.17;25.88;;;14.00;92.00;;;;;;4593195;19;20337;-23
2022/11/23 06:31:30;;;;;;;36.53;24.90;;;14.00;91.90;;;;;;4593034;19;20085;-23
2022/11/23 06:33:03;;;;;;;39.72;25.52;;;14.00;91.90;;;;;;4593104;19;20040;-21
2022/11/23 06:34:34;;;;;;;40.83;25.47;;;14.00;91.90;;;;;;4593703;19;20575;-21
2022/11/23 06:36:06;;;;;;;39.03;25.40;;;14.00;91.90;;;;;;4591149;19;20018;-23
2022/11/23 06:37:37;;;;;;;38.45;25.10;;;14.00;91.90;;;;;;4594034;19;20015;-21
2022/11/23 06:39:08;;;;;;;39.78;26.20;;;14.00;91.90;;;;;;4591629;19;20053;-22
2022/11/23 06:40:40;;;;;;;42.37;26.47;;;14.00;91.90;;;;;;4591998;19;20010;-21
2022/11/23 06:42:12;;;;;;;39.88;25.85;;;14.00;91.90;;;;;;4593348;19;20018;-22
2022/11/23 06:43:46;;;;;;;;;;;14.10;91.90;;;;;;4595063;19;20082;-22
2022/11/23 06:45:17;;;;;;;41.60;25.87;;;14.10;91.90;;;;;;4594007;19;19921;-22
2022/11/23 06:46:48;;;;;;;40.97;26.00;;;14.10;91.80;;;;;;4592949;19;21163;-21
2022/11/23 06:48:19;;;;;;;39.58;25.20;;;14.10;91.80;;;;;;4593332;19;20014;-22
2022/11/23 06:49:51;;;;;;;40.00;24.58;;;14.10;91.80;;;;;;4592576;19;20027;-22
2022/11/23 06:51:22;;;;;;;41.47;26.42;;;14.10;91.90;;;;;;4593667;19;20487;-22
2022/11/23 06:52:55;;;;;;;40.20;24.45;;;14.10;91.90;;;;;;4593210;19;20014;-21
2022/11/23 06:54:27;;;;;;;37.03;25.00;;;14.10;91.80;;;;;;4593275;19;20014;-25
2022/11/23 06:56:01;;;;;;;35.42;23.35;;;14.20;91.80;;;;;;4591797;19;20011;-22
2022/11/23 06:57:32;;;;;;;39.10;24.33;;;14.20;91.80;;;;;;4593547;19;20010;-24
2022/11/23 06:59:04;;;;;;;;;;;14.20;91.80;;;;;;4593539;19;20038;-24
2022/11/23 07:00:37;;;;;;;37.40;21.93;;;14.20;91.70;;;;;;4593065;19;19922;-22
2022/11/23 07:02:09;;;;;;;39.05;24.05;;;14.20;91.80;;;;;;4592689;19;20010;-22
2022/11/23 07:03:41;;;;;;;37.50;23.40;;;14.10;91.80;;;;;;4591341;19;20003;-22
2022/11/23 07:05:14;;;;;;;38.63;22.80;;;14.10;91.80;;;;;;4592913;19;20015;-22
2022/11/23 07:06:46;;;;;;;36.10;23.60;;;14.10;91.80;;;;;;4593384;19;20022;-23
2022/11/23 07:08:18;;;;;;;37.03;24.05;;;14.10;91.80;;;;;;4593634;19;20014;-22
2022/11/23 07:09:49;;;;;;;39.72;24.30;;;14.10;91.80;;;;;;4591741;19;20025;-21
2022/11/23 07:11:20;;;;;;;35.08;22.58;;;14.10;91.80;;;;;;4592633;19;20010;-22
2022/11/23 07:12:52;;;;;;;33.13;22.90;;;14.10;91.80;;;;;;4592874;19;20027;-22
2022/11/23 07:14:23;;;;;;;38.13;22.15;;;14.00;91.80;;;;;;4592271;19;20034;-22
2022/11/23 07:15:56;;;;;;;38.55;24.83;;;14.10;91.80;;;;;;4592524;19;20066;-26
2022/11/23 07:17:28;;;;;;;37.67;23.10;;;14.00;91.80;;;;;;4595235;19;20010;-22
2022/11/23 07:19:00;;;;;;;39.97;22.60;;;14.00;91.80;;;;;;4592052;19;20006;-22
2022/11/23 07:20:31;;;;;;;37.40;23.10;;;14.10;91.70;;;;;;4592596;19;20038;-21
2022/11/23 07:22:04;;;;;;;34.60;21.83;;;14.00;91.70;;;;;;4589632;19;20108;-21
2022/11/23 07:23:39;;;;;;;35.35;22.15;;;14.10;91.70;;;;;;4592834;19;20025;-22
2022/11/23 07:25:15;;;;;;;40.70;24.67;;;14.00;91.70;;;;;;4591722;19;20018;-21
2022/11/23 07:26:49;;;;;;;39.87;23.53;;;14.00;91.80;;;;;;4592455;19;20030;-23
2022/11/23 07:28:23;;;;;;;41.97;25.80;;;14.00;91.80;;;;;;4592052;19;20021;-23
2022/11/23 07:29:54;;;;;;;44.37;26.20;;;14.00;91.80;;;;;;4592588;19;20022;-22
2022/11/23 07:31:25;;;;;;;46.03;27.10;;;14.10;91.80;;;;;;4591245;19;20097;-26
2022/11/23 07:33:00;;;;;;;41.33;26.33;;;14.10;91.70;;;;;;4592818;19;20027;-22
2022/11/23 07:34:32;;;;;;;42.53;25.90;;;14.10;91.70;;;;;;4591447;19;20495;-21
2022/11/23 07:36:03;;;;;;;45.40;27.55;;;14.20;91.70;;;;;;4590882;19;20074;-21
2022/11/23 07:37:35;;;;;;;43.08;25.42;;;14.30;91.60;;;;;;4594332;19;20018;-22
2022/11/23 07:39:06;;;;;;;41.35;27.10;;;14.30;91.60;;;;;;4589283;19;20089;-24
2022/11/23 07:40:38;;;;;;;44.08;27.67;;;14.30;91.50;;;;;;4591438;19;20483;-23
2022/11/23 07:42:09;;;;;;;41.85;27.02;;;14.30;91.50;;;;;;4590975;19;20007;-22
2022/11/23 07:43:40;;;;;;;;;;;14.40;91.50;;;;;;4592745;19;20027;-21
2022/11/23 07:45:12;;;;;;;40.20;25.30;;;14.40;91.40;;;;;;4592009;19;19915;-21
2022/11/23 07:46:43;;;;;;;40.50;25.83;;;14.50;91.40;;;;;;4592277;19;20011;-21
2022/11/23 07:48:15;;;;;;;38.60;24.05;;;14.50;91.40;;;;;;4592245;19;20534;-24
2022/11/23 07:49:46;;;;;;;40.17;23.87;;;14.50;91.40;;;;;;4591787;19;20077;-20
2022/11/23 07:51:18;;;;;;;41.33;25.48;;;14.50;91.40;;;;;;4591951;19;20011;-21
2022/11/23 07:52:51;;;;;;;35.93;22.90;;;14.50;91.50;;;;;;4592629;19;20357;-22
2022/11/23 07:54:22;;;;;;;41.47;24.43;;;14.50;91.50;;;;;;4592118;19;20033;-21
2022/11/23 07:55:57;;;;;;;40.15;24.73;;;14.40;91.50;;;;;;4591960;19;20044;-22
2022/11/23 07:57:28;;;;;;;34.13;22.97;;;14.40;91.50;;;;;;4594129;19;20014;-21
2022/11/23 07:58:59;;;;;;;40.83;24.40;;;14.40;91.50;;;;;;4590221;19;20019;-21
2022/11/23 08:00:30;;;;;;;38.67;23.70;;;14.40;91.50;;;;;;4592371;19;20003;-21
2022/11/23 08:02:03;;;;;;;41.13;23.47;;;14.40;91.50;;;;;;4592195;19;20340;-24
2022/11/23 08:03:39;;;;;;;36.73;23.23;;;14.40;91.60;;;;;;4590538;19;20048;-21
2022/11/23 08:05:10;;;;;;;34.95;23.17;;;14.30;91.50;;;;;;4591771;19;20014;-22
2022/11/23 08:06:41;;;;;;;34.15;22.15;;;14.30;91.60;;;;;;4592024;19;20026;-22
2022/11/23 08:08:13;;;;;;;38.40;23.23;;;14.30;91.60;;;;;;4591577;19;20018;-22
2022/11/23 08:09:44;;;;;;;38.80;22.67;;;14.30;91.70;;;;;;4592035;19;20029;-21
2022/11/23 08:11:17;;;;;;;35.88;22.45;;;14.30;91.70;;;;;;4592280;19;20018;-21
2022/11/23 08:12:49;;;;;;;41.07;23.23;;;14.30;91.80;;;;;;4592320;19;20037;-22
2022/11/23 08:14:20;;;;;;;46.22;26.30;;;14.30;91.80;;;;;;4590485;19;20015;-21
2022/11/23 08:15:51;;;;;;;43.92;27.35;;;14.30;91.80;;;;;;4591553;19;20018;-21
2022/11/23 08:17:22;;;;;;;39.88;24.27;;;14.30;91.80;;;;;;4592709;19;20038;-20
2022/11/23 08:18:53;;;;;;;38.22;24.00;;;14.30;91.80;;;;;;4590981;19;20010;-21
2022/11/23 08:20:25;;;;;;;39.97;24.60;;;14.30;91.80;;;;;;4591881;19;20339;-22
2022/11/23 08:21:56;;;;;;;;;;;14.30;91.80;;;;;;4592925;19;20014;-23
2022/11/23 08:23:27;;;;;;;40.70;24.60;;;14.30;91.80;;;;;;4591870;19;20340;-21
2022/11/23 08:24:58;;;;;;;43.67;27.60;;;14.20;91.80;;;;;;4590794;19;20023;-21
2022/11/23 08:26:29;;;;;;;42.53;28.45;;;14.20;91.80;;;;;;4590838;19;20014;-22
2022/11/23 08:28:02;;;;;;;39.10;25.95;;;14.20;91.80;;;;;;4591509;19;20039;-21
2022/11/23 08:29:33;;;;;;;41.60;25.27;;;14.20;91.90;;;;;;4591416;19;20114;-21
2022/11/23 08:31:06;;;;;;;40.55;25.08;;;14.20;91.80;;;;;;4590891;19;20011;-21
2022/11/23 08:32:38;;;;;;;41.63;24.63;;;14.20;91.90;;;;;;4591230;19;20074;-21
2022/11/23 08:34:09;;;;;;;37.72;22.70;;;14.20;91.90;;;;;;4591342;19;20014;-22
2022/11/23 08:35:41;;;;;;;38.35;24.52;;;14.20;91.90;;;;;;4591914;19;20025;-21
2022/11/23 08:37:12;;;;;;;39.85;24.83;;;14.20;91.90;;;;;;4591021;19;20052;-22
2022/11/23 08:38:43;;;;;;;41.65;25.65;;;14.20;91.90;;;;;;4589849;19;20499;-21
2022/11/23 08:40:14;;;;;;;37.08;24.10;;;14.20;91.90;;;;;;4591106;19;20014;-21
2022/11/23 08:41:45;;;;;;;39.17;24.70;;;14.20;91.90;;;;;;4588959;19;20019;-21
2022/11/23 08:43:17;;;;;;;39.47;23.85;;;14.20;91.90;;;;;;4590269;19;20021;-22
2022/11/23 08:44:48;;;;;;;39.50;23.38;;;14.20;92.00;;;;;;4591115;19;20014;-21
2022/11/23 08:46:19;;;;;;;36.22;23.13;;;14.10;92.00;;;;;;4590371;19;20018;-23
2022/11/23 08:47:50;;;;;;;43.03;26.20;;;14.20;92.00;;;;;;4592098;19;20074;-22
2022/11/23 08:49:21;;;;;;;37.42;23.85;;;14.20;92.00;;;;;;4590653;19;20006;-21
2022/11/23 08:50:53;;;;;;;39.28;24.33;;;14.10;92.00;;;;;;4591269;19;20019;-21
2022/11/23 08:52:24;;;;;;;39.45;25.05;;;14.20;92.00;;;;;;4591237;19;20028;-21
2022/11/23 08:53:55;;;;;;;37.13;22.75;;;14.20;92.00;;;;;;4590688;19;20010;-21
2022/11/23 08:55:27;;;;;;;39.53;24.87;;;14.10;92.00;;;;;;4589805;19;20046;-24
2022/11/23 08:56:58;;;;;;;35.42;22.65;;;14.10;92.00;;;;;;4590638;19;20340;-23
2022/11/23 08:58:29;;;;;;;38.10;26.25;;;14.10;92.00;;;;;;4590786;19;20018;-21
2022/11/23 09:00:01;;;;;;;40.95;28.33;;;14.10;92.00;;;;;;4589438;19;20016;-20
2022/11/23 09:01:33;;;;;;;39.90;26.20;;;14.10;92.00;;;;;;4590452;19;20014;-22
2022/11/23 09:03:04;;;;;;;37.05;22.20;;;14.10;92.00;;;;;;4591128;19;20035;-22
2022/11/23 09:04:36;;;;;;;35.17;23.27;;;14.10;92.00;;;;;;4590339;19;20038;-22